Time;durP1;ratioP1;P1;durP2;ratioP2;P2;SDS_P1;SDS_P2;PMS_P1;PMS_P2;Temp;Humidity;BMP_temperature;BMP_pressure;BME280_temperature;BME280_humidity;BME280_pressure;Samples;Min_cycle;Max_cycle;Signal;HPM_P1;HPM_P2
2022/08/23 00:02:17;;;;;;;5.20;4.10;;;19.50;99.90;;;;;;5045924;28;20583;-81
2022/08/23 00:05:03;;;;;;;3.80;3.50;;;19.40;99.90;;;;;;5045989;28;20454;-80
2022/08/23 00:07:47;;;;;;;4.37;3.97;;;19.40;99.90;;;;;;5045962;28;20387;-81
2022/08/23 00:10:32;;;;;;;4.87;4.27;;;19.40;99.90;;;;;;5046250;28;20458;-78
2022/08/23 00:13:18;;;;;;;4.87;4.17;;;19.40;99.90;;;;;;5046032;28;20910;-80
2022/08/23 00:16:02;;;;;;;4.83;4.43;;;19.40;99.90;;;;;;5045314;28;20386;-79
2022/08/23 00:18:47;;;;;;;3.80;3.50;;;19.30;99.90;;;;;;5046071;28;20390;-80
2022/08/23 00:21:34;;;;;;;5.80;5.13;;;19.10;99.90;;;;;;5046040;28;20407;-80
2022/08/23 00:24:19;;;;;;;5.43;4.53;;;19.20;99.90;;;;;;5045548;28;20419;-80
2022/08/23 00:27:09;;;;;;;6.50;4.30;;;19.20;99.90;;;;;;5045689;28;20414;-80
2022/08/23 00:29:55;;;;;;;4.60;4.20;;;19.20;99.90;;;;;;5046258;28;20378;-80
2022/08/23 00:32:40;;;;;;;4.10;3.70;;;19.20;99.90;;;;;;5045919;28;20890;-80
2022/08/23 00:35:25;;;;;;;6.40;4.60;;;19.20;99.90;;;;;;5045811;28;20431;-80
2022/08/23 00:38:09;;;;;;;5.53;4.10;;;19.10;99.90;;;;;;5046103;28;20410;-80
2022/08/23 00:40:55;;;;;;;4.77;4.37;;;19.10;99.90;;;;;;5045903;28;20386;-80
2022/08/23 00:50:00;;;;;;;6.90;4.83;;;18.90;99.90;;;;;;5108969;28;20411;-80
2022/08/23 00:52:57;;;;;;;6.67;4.77;;;18.90;99.90;;;;;;5108926;28;20471;-80
2022/08/23 00:55:44;;;;;;;7.43;4.97;;;18.80;99.90;;;;;;5108638;28;20435;-80
2022/08/23 00:58:30;;;;;;;4.60;4.10;;;18.80;99.90;;;;;;5109132;28;20785;-81
2022/08/23 01:01:16;;;;;;;4.63;4.10;;;18.60;99.90;;;;;;5108381;28;20393;-80
2022/08/23 01:04:02;;;;;;;4.50;3.80;;;18.50;99.90;;;;;;5109255;28;20403;-80
2022/08/23 01:06:54;;;;;;;6.83;4.37;;;18.50;99.90;;;;;;5109042;28;20957;-80
2022/08/23 01:09:41;;;;;;;5.10;4.70;;;18.50;99.90;;;;;;5108793;28;20879;-81
2022/08/23 01:12:34;;;;;;;5.30;4.80;;;18.50;99.90;;;;;;5109381;28;20538;-80
2022/08/23 01:15:25;;;;;;;6.73;4.30;;;18.50;99.90;;;;;;5093951;28;20380;-81
2022/08/23 01:18:14;;;;;;;5.43;4.93;;;18.50;99.90;;;;;;5096851;28;20399;-78
2022/08/23 01:21:14;;;;;;;8.40;4.30;;;18.50;99.90;;;;;;5068897;28;20427;-78
2022/08/23 01:24:03;;;;;;;5.70;4.60;;;18.50;99.90;;;;;;5114037;28;20396;-78
2022/08/23 01:26:49;;;;;;;12.47;5.20;;;18.50;99.90;;;;;;5118633;28;20427;-79
2022/08/23 01:29:33;;;;;;;13.43;4.87;;;18.50;99.90;;;;;;5117766;28;20380;-80
2022/08/23 01:32:17;;;;;;;8.23;4.40;;;18.60;99.90;;;;;;5117281;28;20432;-78
2022/08/23 01:35:02;;;;;;;5.40;4.90;;;18.60;99.90;;;;;;5084208;28;20726;-80
2022/08/23 01:37:47;;;;;;;7.53;4.97;;;18.60;99.90;;;;;;5107376;28;20400;-80
2022/08/23 01:40:33;;;;;;;5.03;4.53;;;18.50;99.90;;;;;;5091935;28;20388;-80
2022/08/23 01:43:20;;;;;;;13.00;4.50;;;18.50;99.90;;;;;;5107732;28;20438;-80
2022/08/23 01:46:12;;;;;;;6.70;3.93;;;18.40;99.90;;;;;;5106806;28;20958;-80
2022/08/23 01:48:57;;;;;;;4.30;3.90;;;18.30;99.90;;;;;;5107080;28;20392;-80
2022/08/23 01:51:42;;;;;;;5.90;5.13;;;18.30;99.90;;;;;;5107219;28;20399;-79
2022/08/23 01:54:28;;;;;;;8.23;4.00;;;18.30;99.90;;;;;;5107175;28;20380;-80
2022/08/23 01:57:13;;;;;;;4.80;4.40;;;18.30;99.90;;;;;;5106948;28;20447;-80
2022/08/23 01:59:57;;;;;;;4.60;4.27;;;18.20;99.90;;;;;;5106471;28;20404;-79
2022/08/23 02:02:45;;;;;;;6.00;4.33;;;18.30;99.90;;;;;;5106504;28;20384;-80
2022/08/23 02:05:30;;;;;;;4.33;4.03;;;18.10;99.90;;;;;;5107217;28;20406;-80
2022/08/23 02:11:17;;;;;;;5.43;4.93;;;18.00;99.90;;;;;;5108028;28;20464;-80
2022/08/23 02:14:06;;;;;;;6.87;4.40;;;18.00;99.90;;;;;;5108146;28;20396;-81
2022/08/23 02:16:52;;;;;;;4.97;4.57;;;18.00;99.90;;;;;;5105911;28;20445;-79
2022/08/23 02:19:38;;;;;;;5.47;4.97;;;18.00;99.90;;;;;;5108420;28;20388;-78
2022/08/23 02:22:23;;;;;;;4.37;4.03;;;17.90;99.90;;;;;;5103927;28;20452;-81
2022/08/23 02:25:08;;;;;;;4.40;4.10;;;18.00;99.90;;;;;;5089604;28;20396;-78
2022/08/23 02:27:53;;;;;;;5.53;4.80;;;17.90;99.90;;;;;;5078200;28;20377;-78
2022/08/23 02:30:38;;;;;;;5.77;4.30;;;17.80;99.90;;;;;;5104561;28;20459;-80
2022/08/23 02:33:23;;;;;;;6.30;4.20;;;17.80;99.90;;;;;;5103832;28;20447;-79
2022/08/23 02:36:07;;;;;;;4.97;4.47;;;17.80;99.90;;;;;;5102898;28;20388;-80
2022/08/23 02:38:53;;;;;;;6.27;5.20;;;17.80;99.90;;;;;;5103297;28;20785;-78
2022/08/23 02:41:37;;;;;;;10.77;5.33;;;17.80;99.90;;;;;;5103481;28;20380;-81
2022/08/23 02:44:23;;;;;;;6.90;4.87;;;17.70;99.90;;;;;;5102926;28;20447;-81
2022/08/23 02:47:08;;;;;;;7.03;5.33;;;17.70;99.90;;;;;;5105851;28;20426;-78
2022/08/23 02:49:52;;;;;;;4.93;4.53;;;17.70;99.90;;;;;;5090427;28;20384;-80
2022/08/23 02:52:36;;;;;;;5.97;5.33;;;17.70;99.90;;;;;;5090414;28;20467;-79
2022/08/23 02:55:21;;;;;;;5.93;4.63;;;17.70;99.90;;;;;;5106702;28;21024;-80
2022/08/23 02:58:06;;;;;;;5.97;5.27;;;17.70;99.90;;;;;;5106221;28;20419;-78
2022/08/23 03:00:52;;;;;;;5.93;4.87;;;17.60;99.90;;;;;;5105980;28;20664;-81
2022/08/23 03:03:36;;;;;;;5.30;4.60;;;17.60;99.90;;;;;;5106022;28;20427;-79
2022/08/23 03:06:21;;;;;;;9.80;4.77;;;17.60;99.90;;;;;;5106618;28;20185;-79
2022/08/23 03:09:06;;;;;;;5.93;5.30;;;17.60;99.90;;;;;;5090851;28;20391;-81
2022/08/23 03:11:50;;;;;;;7.50;5.27;;;17.60;99.90;;;;;;5105284;28;20571;-79
2022/08/23 03:14:36;;;;;;;4.90;4.57;;;17.50;99.90;;;;;;5105710;28;20392;-79
2022/08/23 03:17:21;;;;;;;5.70;5.30;;;17.50;99.90;;;;;;5106048;28;20461;-81
2022/08/23 03:20:06;;;;;;;11.33;5.43;;;17.50;99.90;;;;;;5105451;28;20388;-81
2022/08/23 03:22:51;;;;;;;5.00;4.63;;;17.50;99.90;;;;;;5105223;28;20400;-81
2022/08/23 03:25:36;;;;;;;6.60;5.97;;;17.40;99.90;;;;;;5106244;28;20720;-81
2022/08/23 03:28:21;;;;;;;5.37;4.93;;;17.40;99.90;;;;;;5105407;28;20772;-80
2022/08/23 03:31:08;;;;;;;5.30;4.80;;;17.30;99.90;;;;;;5090096;28;20388;-80
2022/08/23 03:33:52;;;;;;;5.43;4.97;;;17.20;99.90;;;;;;5104840;28;20443;-81
2022/08/23 03:36:37;;;;;;;7.30;5.33;;;17.20;99.90;;;;;;5105506;28;20430;-80
2022/08/23 03:39:22;;;;;;;5.57;5.17;;;17.20;99.90;;;;;;5105513;28;20376;-79
2022/08/23 03:42:07;;;;;;;7.53;4.80;;;17.20;99.90;;;;;;5104987;28;20842;-80
2022/08/23 03:44:52;;;;;;;6.43;5.77;;;17.20;99.90;;;;;;5104402;28;20455;-81
2022/08/23 03:47:36;;;;;;;5.63;5.07;;;17.10;99.90;;;;;;5120334;28;20440;-78
2022/08/23 03:50:21;;;;;;;6.57;5.90;;;17.10;99.90;;;;;;5134093;27;20382;-79
2022/08/23 03:53:06;;;;;;;7.07;6.37;;;17.00;99.90;;;;;;5116839;28;20458;-81
2022/08/23 03:55:53;;;;;;;7.63;4.50;;;16.80;99.90;;;;;;5128515;27;20448;-80
2022/08/23 03:58:37;;;;;;;6.93;6.20;;;16.90;99.90;;;;;;5145966;27;20475;-81
2022/08/23 04:01:22;;;;;;;6.17;5.63;;;16.90;99.90;;;;;;5148557;27;20401;-81
2022/08/23 04:04:06;;;;;;;6.10;5.60;;;16.90;99.90;;;;;;5148749;27;20492;-81
2022/08/23 04:06:50;;;;;;;10.57;6.70;;;16.80;99.90;;;;;;5149409;27;20382;-81
2022/08/23 04:09:35;;;;;;;7.80;6.03;;;16.80;99.90;;;;;;5148622;27;20400;-81
2022/08/23 04:12:20;;;;;;;5.83;5.23;;;16.80;99.90;;;;;;5133220;27;20442;-81
2022/08/23 04:15:05;;;;;;;7.60;5.70;;;16.90;99.90;;;;;;5149635;27;20381;-81
2022/08/23 04:17:51;;;;;;;9.90;6.37;;;17.00;99.90;;;;;;5149086;27;20386;-81
2022/08/23 04:20:36;;;;;;;10.03;6.60;;;17.00;99.90;;;;;;5133185;27;20444;-80
2022/08/23 04:23:21;;;;;;;7.13;5.50;;;17.00;99.90;;;;;;5149029;27;20382;-81
2022/08/23 04:26:06;;;;;;;10.40;6.87;;;17.00;99.90;;;;;;5146981;27;20391;-78
2022/08/23 04:28:50;;;;;;;8.67;6.53;;;16.90;99.90;;;;;;5145483;27;20458;-79
2022/08/23 04:31:35;;;;;;;10.63;5.70;;;16.80;99.90;;;;;;5131621;28;20427;-78
2022/08/23 04:34:20;;;;;;;6.83;6.13;;;16.70;99.90;;;;;;5140433;28;20380;-80
2022/08/23 04:37:05;;;;;;;6.07;5.53;;;16.80;99.90;;;;;;5138302;28;20406;-80
2022/08/23 04:42:44;;;;;;;7.37;6.60;;;16.80;99.90;;;;;;5127519;28;20391;-78
2022/08/23 04:45:31;;;;;;;8.17;6.13;;;16.50;99.90;;;;;;5122039;28;20480;-80
2022/08/23 04:48:15;;;;;;;7.97;5.80;;;16.40;99.90;;;;;;5128628;28;20933;-80
2022/08/23 04:51:00;;;;;;;6.93;6.33;;;16.30;99.90;;;;;;5128115;28;20398;-81
2022/08/23 04:53:45;;;;;;;6.67;6.00;;;16.50;99.90;;;;;;5131170;28;20500;-80
2022/08/23 04:56:32;;;;;;;7.13;6.43;;;16.60;99.90;;;;;;5137636;28;20462;-81
2022/08/23 04:59:16;;;;;;;6.03;5.27;;;16.70;99.90;;;;;;5128206;28;20403;-80
2022/08/23 05:02:00;;;;;;;7.13;5.10;;;16.70;99.90;;;;;;5126113;28;20443;-80
2022/08/23 05:04:45;;;;;;;7.10;5.90;;;16.80;99.90;;;;;;5138126;28;20444;-79
2022/08/23 05:07:30;;;;;;;6.47;5.87;;;16.90;99.90;;;;;;5107664;28;20461;-81
2022/08/23 05:10:15;;;;;;;7.63;6.33;;;16.90;99.90;;;;;;5108966;28;20421;-81
2022/08/23 05:13:00;;;;;;;7.03;6.37;;;16.90;99.90;;;;;;5124742;27;20466;-81
2022/08/23 05:15:45;;;;;;;5.83;5.33;;;17.00;99.90;;;;;;5120733;28;20391;-81
2022/08/23 05:18:29;;;;;;;9.50;6.00;;;16.90;99.90;;;;;;5124904;28;20465;-81
2022/08/23 05:21:17;;;;;;;8.40;6.80;;;17.00;99.90;;;;;;5128336;27;20453;-81
2022/08/23 05:24:02;;;;;;;7.43;5.73;;;17.10;99.90;;;;;;5123887;27;20487;-81
2022/08/23 05:26:46;;;;;;;6.73;6.13;;;17.10;99.90;;;;;;5121381;28;20439;-81
2022/08/23 05:29:31;;;;;;;7.03;6.33;;;17.20;99.90;;;;;;5122694;28;20427;-82
2022/08/23 05:32:15;;;;;;;7.40;6.60;;;16.70;99.90;;;;;;5116677;28;20462;-81
2022/08/23 05:35:00;;;;;;;6.03;5.40;;;16.70;99.90;;;;;;5105709;28;20411;-81
2022/08/23 05:37:44;;;;;;;16.50;7.63;;;16.50;99.90;;;;;;5111699;28;20432;-81
2022/08/23 05:40:29;;;;;;;10.10;7.77;;;16.60;99.90;;;;;;5126251;28;20492;-81
2022/08/23 05:43:14;;;;;;;7.13;6.43;;;16.90;99.90;;;;;;5126382;28;20413;-81
2022/08/23 05:46:10;;;;;;;16.93;7.60;;;17.10;99.90;;;;;;5111403;28;20469;-81
2022/08/23 05:48:54;;;;;;;6.40;5.80;;;17.00;99.90;;;;;;5119978;27;20886;-82
2022/08/23 05:51:38;;;;;;;7.10;6.50;;;17.20;99.90;;;;;;5124225;27;20423;-80
2022/08/23 05:54:23;;;;;;;7.67;6.87;;;17.40;99.90;;;;;;5078617;28;20438;-82
2022/08/23 05:57:09;;;;;;;8.93;6.27;;;17.50;99.90;;;;;;5118941;27;20840;-82
2022/08/23 05:59:54;;;;;;;8.63;7.07;;;17.70;99.90;;;;;;5107452;28;20486;-81
2022/08/23 06:02:38;;;;;;;6.47;5.97;;;17.70;99.90;;;;;;5076341;28;20432;-81
2022/08/23 06:05:22;;;;;;;6.37;5.70;;;17.70;99.90;;;;;;5114746;28;20434;-81
2022/08/23 06:08:06;;;;;;;8.87;7.80;;;17.70;99.90;;;;;;5122208;28;20426;-81
2022/08/23 06:11:03;;;;;;;7.93;6.57;;;17.70;99.90;;;;;;5121582;28;20450;-81
2022/08/23 06:13:50;;;;;;;8.37;7.50;;;17.70;99.90;;;;;;5098016;28;20463;-81
2022/08/23 06:16:38;;;;;;;6.77;5.40;;;17.90;99.90;;;;;;5106929;28;20376;-81
2022/08/23 06:19:43;;;;;;;9.90;6.53;;;17.90;99.90;;;;;;5080780;28;20433;-82
2022/08/23 06:22:29;;;;;;;11.93;6.30;;;18.00;99.90;;;;;;5091591;28;20441;-81
2022/08/23 06:25:13;;;;;;;7.03;6.30;;;18.10;99.90;;;;;;5070648;28;20428;-82
2022/08/23 06:27:57;;;;;;;7.87;6.67;;;18.10;99.90;;;;;;5089077;28;20451;-81
2022/08/23 06:30:42;;;;;;;9.63;7.90;;;18.20;99.90;;;;;;5092671;28;20590;-81
2022/08/23 06:33:26;;;;;;;7.20;6.40;;;18.20;99.90;;;;;;5088684;28;21254;-81
2022/08/23 06:36:12;;;;;;;8.70;6.40;;;18.30;99.90;;;;;;5091435;28;20439;-80
2022/08/23 06:39:18;;;;;;;6.43;5.90;;;18.20;99.90;;;;;;5050721;28;20485;-80
2022/08/23 06:42:11;;;;;;;5.40;5.00;;;18.00;99.90;;;;;;5051101;28;20482;-80
2022/08/23 06:44:56;;;;;;;12.23;6.40;;;18.10;99.90;;;;;;5049761;28;20484;-80
2022/08/23 06:47:40;;;;;;;8.27;5.60;;;18.20;99.90;;;;;;5049849;28;20472;-81
2022/08/23 06:50:25;;;;;;;8.70;6.27;;;18.20;99.90;;;;;;5047305;28;20972;-81
2022/08/23 06:53:10;;;;;;;6.90;6.40;;;18.10;99.90;;;;;;5061229;28;20680;-81
2022/08/23 06:55:54;;;;;;;6.33;5.73;;;17.80;99.90;;;;;;5049954;28;21031;-80
2022/08/23 06:58:39;;;;;;;6.40;5.83;;;17.90;99.90;;;;;;5053188;28;20448;-82
2022/08/23 07:01:33;;;;;;;7.33;6.00;;;18.30;99.90;;;;;;5056789;28;20410;-82
2022/08/23 07:04:21;;;;;;;7.90;5.50;;;18.50;99.90;;;;;;5062338;28;20525;-81
2022/08/23 07:07:07;;;;;;;6.13;5.53;;;18.60;99.90;;;;;;5061905;28;21087;-79
2022/08/23 07:09:52;;;;;;;6.63;5.90;;;18.70;99.90;;;;;;5079205;28;20431;-81
2022/08/23 07:12:40;;;;;;;7.90;6.00;;;18.70;99.90;;;;;;5113358;28;20478;-82
2022/08/23 07:15:25;;;;;;;9.63;6.30;;;19.00;99.90;;;;;;5101332;28;20511;-81
2022/08/23 07:18:11;;;;;;;6.07;5.67;;;19.20;99.90;;;;;;5118946;28;21179;-81
2022/08/23 07:20:58;;;;;;;7.77;5.87;;;19.20;99.90;;;;;;5102343;28;20411;-81
2022/08/23 07:23:44;;;;;;;7.00;5.70;;;19.30;99.90;;;;;;5109018;28;20430;-81
2022/08/23 07:26:29;;;;;;;7.27;6.63;;;19.30;99.90;;;;;;5105645;28;21108;-81
2022/08/23 07:29:15;;;;;;;5.87;5.27;;;19.50;99.90;;;;;;5096128;28;20524;-82
2022/08/23 07:31:59;;;;;;;5.57;5.17;;;19.60;99.90;;;;;;5110666;27;20498;-80
2022/08/23 07:34:43;;;;;;;10.10;5.40;;;19.60;99.90;;;;;;5096967;28;20503;-81
2022/08/23 07:37:29;;;;;;;5.10;4.70;;;19.80;99.90;;;;;;5113255;27;20473;-80
2022/08/23 07:40:15;;;;;;;4.77;4.40;;;19.70;99.90;;;;;;5111513;28;20461;-81
2022/08/23 07:43:00;;;;;;;8.73;4.87;;;19.50;99.90;;;;;;5100148;28;20426;-82
2022/08/23 07:45:46;;;;;;;5.00;4.60;;;19.50;99.90;;;;;;5095395;27;20548;-81
2022/08/23 07:48:34;;;;;;;5.27;4.87;;;19.60;99.90;;;;;;5107889;27;20465;-79
2022/08/23 07:51:19;;;;;;;4.80;4.40;;;19.80;99.90;;;;;;5097526;27;20450;-82
2022/08/23 07:54:07;;;;;;;9.50;4.93;;;19.90;99.90;;;;;;5113014;27;20470;-81
2022/08/23 07:56:51;;;;;;;4.43;3.93;;;20.10;99.90;;;;;;5104448;27;20518;-81
2022/08/23 07:59:36;;;;;;;4.47;4.17;;;20.30;99.90;;;;;;5119342;27;20450;-82
2022/08/23 08:02:21;;;;;;;4.03;3.73;;;20.10;99.90;;;;;;5107156;27;20522;-79
2022/08/23 08:05:06;;;;;;;3.93;3.53;;;20.30;99.90;;;;;;5106387;27;20434;-82
2022/08/23 08:07:50;;;;;;;9.07;4.37;;;20.60;99.90;;;;;;5113724;27;20478;-82
2022/08/23 08:10:37;;;;;;;11.03;5.50;;;20.70;99.90;;;;;;5120128;27;20439;-80
2022/08/23 08:13:21;;;;;;;3.70;3.40;;;20.80;99.90;;;;;;5103687;27;20555;-82
2022/08/23 08:16:07;;;;;;;5.93;3.80;;;20.80;99.90;;;;;;5112654;27;20510;-81
2022/08/23 08:18:55;;;;;;;3.40;3.20;;;20.70;99.90;;;;;;5111944;27;20472;-81
2022/08/23 08:21:41;;;;;;;3.60;3.07;;;21.00;99.90;;;;;;5115526;27;20820;-82
2022/08/23 08:24:26;;;;;;;4.30;3.50;;;21.20;99.90;;;;;;5089663;28;20427;-81
2022/08/23 08:27:12;;;;;;;5.53;4.07;;;21.30;99.90;;;;;;5098998;28;20431;-83
2022/08/23 08:29:56;;;;;;;6.53;4.10;;;21.30;99.90;;;;;;5116427;27;20967;-79
2022/08/23 08:32:42;;;;;;;3.70;3.40;;;21.40;99.90;;;;;;5109640;27;20528;-81
2022/08/23 08:35:27;;;;;;;7.93;3.00;;;21.30;99.90;;;;;;5109703;27;20444;-82
2022/08/23 08:38:11;;;;;;;5.93;3.57;;;21.30;99.90;;;;;;5093880;28;20229;-80
2022/08/23 08:41:08;;;;;;;3.40;3.10;;;21.10;99.90;;;;;;5104585;27;20943;-81
2022/08/23 08:44:19;;;;;;;4.90;3.30;;;21.20;99.90;;;;;;5119100;27;20429;-80
2022/08/23 08:47:11;;;;;;;3.30;2.80;;;21.40;99.90;;;;;;5102677;28;20937;-81
2022/08/23 08:50:08;;;;;;;4.30;2.93;;;21.60;99.90;;;;;;5112578;27;20446;-82
2022/08/23 08:53:00;;;;;;;3.67;3.37;;;21.90;99.90;;;;;;5115257;27;20462;-82
2022/08/23 08:55:50;;;;;;;2.73;2.43;;;22.10;99.90;;;;;;5105292;27;20510;-80
2022/08/23 08:58:44;;;;;;;3.33;2.30;;;22.30;99.90;;;;;;5028476;28;20495;-81
2022/08/23 09:01:31;;;;;;;5.73;2.20;;;22.40;99.90;;;;;;5082489;28;20475;-79
2022/08/23 09:04:16;;;;;;;13.30;2.90;;;22.60;99.90;;;;;;5079390;28;20503;-80
2022/08/23 09:07:16;;;;;;;3.20;2.27;;;22.70;99.90;;;;;;5080611;28;20545;-80
2022/08/23 09:10:21;;;;;;;2.90;2.70;;;22.60;99.90;;;;;;5079331;28;20440;-80
2022/08/23 09:13:37;;;;;;;3.00;2.80;;;22.50;99.90;;;;;;5081343;28;20468;-81
2022/08/23 09:16:48;;;;;;;2.60;2.10;;;22.30;99.90;;;;;;5078412;28;20424;-79
2022/08/23 09:19:36;;;;;;;3.13;2.53;;;22.30;99.90;;;;;;5073793;28;20528;-79
2022/08/23 09:22:40;;;;;;;2.60;2.40;;;22.60;99.90;;;;;;5071243;28;20440;-79
2022/08/23 09:25:24;;;;;;;2.30;2.10;;;22.50;99.90;;;;;;5076812;28;20484;-82
2022/08/23 09:28:10;;;;;;;2.80;1.90;;;22.90;99.90;;;;;;5075762;28;20447;-80
2022/08/23 09:30:56;;;;;;;2.53;2.33;;;23.40;99.90;;;;;;5119231;27;20427;-80
2022/08/23 09:33:44;;;;;;;2.97;2.67;;;23.40;99.90;;;;;;5116223;27;20467;-81
2022/08/23 09:36:32;;;;;;;3.30;2.60;;;23.80;99.90;;;;;;5100625;28;20510;-81
2022/08/23 09:39:29;;;;;;;3.23;3.00;;;23.80;99.90;;;;;;5109804;28;20495;-80
2022/08/23 09:42:32;;;;;;;5.80;2.37;;;24.10;99.90;;;;;;5107095;28;21041;-81
2022/08/23 09:45:28;;;;;;;3.50;2.43;;;24.20;99.90;;;;;;5113323;27;20500;-81
2022/08/23 09:48:31;;;;;;;2.33;2.23;;;24.40;99.90;;;;;;5111146;27;20507;-80
2022/08/23 09:51:30;;;;;;;4.10;2.60;;;24.50;99.90;;;;;;5107964;27;20914;-82
2022/08/23 09:54:32;;;;;;;3.73;2.13;;;24.40;99.90;;;;;;5109810;27;20465;-79
2022/08/23 09:57:24;;;;;;;3.53;2.23;;;24.50;99.90;;;;;;5081190;28;20439;-80
2022/08/23 10:00:27;;;;;;;2.23;2.13;;;24.60;99.90;;;;;;5109506;28;20462;-82
2022/08/23 10:03:30;;;;;;;2.80;2.40;;;24.90;99.90;;;;;;5114100;28;20430;-81
2022/08/23 10:06:29;;;;;;;2.53;2.10;;;25.10;99.90;;;;;;5110584;28;20454;-83
2022/08/23 10:09:34;;;;;;;4.50;3.00;;;25.20;99.90;;;;;;5093043;28;20442;-81
2022/08/23 10:12:18;;;;;;;2.50;2.13;;;25.30;99.90;;;;;;5113889;28;20825;-82
2022/08/23 10:15:04;;;;;;;2.17;1.97;;;25.30;99.90;;;;;;5087946;28;20976;-80
2022/08/23 10:18:03;;;;;;;3.50;2.70;;;25.60;97.50;;;;;;5088382;28;20943;-82
2022/08/23 10:21:10;;;;;;;5.43;3.47;;;24.90;98.20;;;;;;5086033;28;20436;-81
2022/08/23 10:24:14;;;;;;;2.60;1.90;;;25.30;99.90;;;;;;5025163;28;20452;-82
2022/08/23 10:30:53;;;;;;;4.00;2.50;;;25.00;96.50;;;;;;5043565;28;20485;-83
2022/08/23 10:34:07;;;;;;;3.20;3.00;;;25.70;96.50;;;;;;5046300;28;20613;-83
2022/08/23 10:37:17;;;;;;;2.00;1.90;;;25.20;95.90;;;;;;5041726;28;20441;-83
2022/08/23 10:40:18;;;;;;;2.10;1.97;;;25.50;93.90;;;;;;5055704;28;20437;-82
2022/08/23 10:43:19;;;;;;;2.07;1.97;;;25.20;93.70;;;;;;5051308;28;20876;-82
2022/08/23 10:46:06;;;;;;;8.40;2.73;;;25.80;94.40;;;;;;5040966;28;20475;-80
2022/08/23 10:48:55;;;;;;;1.60;1.47;;;25.40;93.50;;;;;;5042950;28;20492;-83
2022/08/23 10:51:44;;;;;;;2.50;2.30;;;25.20;90.70;;;;;;5037874;28;20571;-82
2022/08/23 10:54:58;;;;;;;2.80;2.10;;;25.70;90.60;;;;;;5025285;28;20481;-80
2022/08/23 10:57:45;;;;;;;2.90;2.00;;;25.60;89.00;;;;;;5025809;28;20483;-83
2022/08/23 11:00:33;;;;;;;3.63;1.97;;;26.70;85.90;;;;;;5027150;28;20424;-81
2022/08/23 11:03:30;;;;;;;2.80;2.43;;;27.00;82.30;;;;;;5023512;28;21016;-80
2022/08/23 11:06:44;;;;;;;2.47;1.60;;;27.50;81.20;;;;;;5043145;28;20461;-81
2022/08/23 11:09:35;;;;;;;1.93;1.73;;;27.90;78.30;;;;;;5091559;28;20761;-81
2022/08/23 11:12:26;;;;;;;1.67;1.57;;;27.50;78.20;;;;;;5110030;28;20535;-82
2022/08/23 11:15:18;;;;;;;1.43;1.33;;;28.00;75.10;;;;;;5114820;28;20514;-83
2022/08/23 11:18:06;;;;;;;2.53;1.57;;;29.30;69.70;;;;;;5087746;28;20430;-83
2022/08/23 11:20:56;;;;;;;1.58;1.48;;;29.90;65.70;;;;;;5110788;28;20196;-82
2022/08/23 11:23:54;;;;;;;2.25;1.30;;;30.70;63.70;;;;;;5117454;28;20188;-83
2022/08/23 11:27:00;;;;;;;1.65;1.55;;;30.60;61.70;;;;;;5091000;28;20226;-82
2022/08/23 11:29:45;;;;;;;1.90;1.58;;;29.20;58.50;;;;;;5102697;28;20183;-83
2022/08/23 11:32:36;;;;;;;1.95;1.73;;;30.10;60.00;;;;;;5088876;28;20398;-79
2022/08/23 11:36:04;;;;;;;2.15;2.05;;;31.30;60.50;;;;;;5111001;28;20196;-81
2022/08/23 11:39:12;;;;;;;1.88;1.60;;;32.10;58.10;;;;;;4970739;28;20258;-81
2022/08/23 11:42:06;;;;;;;1.60;1.42;;;32.50;58.00;;;;;;4939604;29;20251;-80
2022/08/23 11:45:05;;;;;;;1.55;1.45;;;33.20;56.00;;;;;;4956003;29;20308;-81
2022/08/23 11:48:15;;;;;;;1.63;1.52;;;33.50;54.20;;;;;;4899390;29;20218;-80
2022/08/23 11:51:27;;;;;;;1.80;1.70;;;33.50;55.40;;;;;;4926947;29;20273;-79
2022/08/23 11:54:56;;;;;;;1.50;1.40;;;34.00;54.10;;;;;;4900187;29;20321;-79
2022/08/23 11:58:06;;;;;;;2.00;1.90;;;34.10;52.80;;;;;;4889985;29;20319;-82
2022/08/23 12:01:07;;;;;;;1.80;1.70;;;34.50;51.90;;;;;;4897837;29;20268;-80
2022/08/23 12:03:59;;;;;;;2.72;1.60;;;34.50;52.60;;;;;;4875375;29;20840;-78
2022/08/23 12:06:48;;;;;;;2.15;1.80;;;33.90;50.60;;;;;;4876799;29;20734;-80
2022/08/23 12:09:54;;;;;;;2.38;1.75;;;34.40;50.80;;;;;;4890028;29;20287;-79
2022/08/23 12:12:41;;;;;;;2.10;2.00;;;34.80;50.40;;;;;;4886129;29;20289;-81
2022/08/23 12:15:58;;;;;;;1.73;1.63;;;34.90;50.40;;;;;;4912725;29;20198;-80
2022/08/23 12:18:56;;;;;;;2.50;2.35;;;35.00;49.90;;;;;;4923835;29;20186;-80
2022/08/23 12:21:49;;;;;;;1.98;1.80;;;35.10;49.30;;;;;;4940163;29;20244;-80
2022/08/23 12:24:46;;;;;;;2.28;2.08;;;33.40;49.20;;;;;;4939672;28;20201;-80
2022/08/23 12:27:45;;;;;;;1.90;1.80;;;31.30;53.10;;;;;;4996072;28;20187;-80
2022/08/23 12:30:37;;;;;;;2.00;1.75;;;32.10;54.50;;;;;;5005774;28;20596;-82
2022/08/23 12:33:44;;;;;;;3.88;2.45;;;33.00;53.30;;;;;;5048507;28;20222;-80
2022/08/23 12:36:45;;;;;;;1.83;1.73;;;33.80;51.60;;;;;;5115801;28;20702;-82
2022/08/23 12:39:35;;;;;;;2.22;2.08;;;34.00;50.60;;;;;;5112237;28;20535;-80
2022/08/23 12:42:28;;;;;;;2.85;2.65;;;32.80;51.80;;;;;;5102150;28;20227;-80
2022/08/23 12:45:18;;;;;;;3.30;2.13;;;32.70;51.10;;;;;;5105983;28;20224;-80
2022/08/23 12:48:09;;;;;;;1.73;1.63;;;32.20;53.40;;;;;;5113227;28;20250;-82
2022/08/23 12:50:58;;;;;;;2.55;2.05;;;34.10;50.60;;;;;;5099971;28;20196;-81
2022/08/23 12:53:44;;;;;;;2.25;2.05;;;35.00;50.00;;;;;;5094514;28;20237;-81
2022/08/23 12:56:29;;;;;;;2.95;1.83;;;35.60;50.00;;;;;;5103572;28;20216;-84
2022/08/23 12:59:39;;;;;;;1.85;1.75;;;35.80;48.30;;;;;;5106942;28;20234;-83
2022/08/23 13:02:28;;;;;;;2.63;2.00;;;35.30;49.80;;;;;;5104837;28;20216;-83
2022/08/23 13:05:26;;;;;;;3.45;1.90;;;34.60;48.70;;;;;;5116316;28;20223;-82
2022/08/23 13:08:20;;;;;;;2.38;2.28;;;34.30;50.20;;;;;;5109949;28;20177;-84
2022/08/23 13:11:07;;;;;;;2.30;2.10;;;31.70;50.60;;;;;;5117054;28;20195;-82
2022/08/23 13:13:52;;;;;;;1.88;1.77;;;31.90;53.50;;;;;;5080284;28;20181;-81
2022/08/23 13:16:43;;;;;;;3.72;2.10;;;34.00;50.80;;;;;;5107706;28;20743;-81
2022/08/23 13:19:30;;;;;;;2.50;2.08;;;34.60;50.20;;;;;;5091756;28;20196;-84
2022/08/23 13:22:24;;;;;;;2.45;2.30;;;33.50;50.90;;;;;;5087298;28;20208;-81
2022/08/23 13:25:13;;;;;;;4.47;2.20;;;34.90;51.30;;;;;;5120373;27;20195;-81
2022/08/23 13:28:00;;;;;;;2.50;2.00;;;32.20;52.20;;;;;;5118739;28;20192;-80
2022/08/23 13:31:01;;;;;;;2.22;1.85;;;32.90;52.60;;;;;;5093934;28;20257;-82
2022/08/23 13:33:52;;;;;;;3.35;2.10;;;33.40;52.60;;;;;;5105909;28;20220;-80
2022/08/23 13:36:37;;;;;;;1.90;1.80;;;34.70;50.60;;;;;;5099221;28;20197;-81
2022/08/23 13:39:31;;;;;;;3.45;1.70;;;35.10;49.60;;;;;;5117525;28;20290;-81
2022/08/23 13:42:35;;;;;;;6.45;2.38;;;35.30;49.30;;;;;;5067917;28;20260;-81
2022/08/23 13:45:26;;;;;;;2.20;1.83;;;35.10;47.60;;;;;;5082765;28;20244;-82
2022/08/23 13:48:14;;;;;;;1.92;1.83;;;33.10;50.30;;;;;;5078058;28;20173;-81
2022/08/23 13:51:31;;;;;;;2.38;2.10;;;31.70;50.90;;;;;;5093905;28;20684;-79
2022/08/23 13:54:17;;;;;;;2.13;1.92;;;32.10;50.90;;;;;;5090221;28;20242;-80
2022/08/23 13:57:09;;;;;;;2.35;2.15;;;31.40;53.00;;;;;;5079590;28;20268;-84
2022/08/23 13:59:57;;;;;;;2.63;2.42;;;31.20;53.60;;;;;;5091061;28;20205;-81
2022/08/23 14:02:41;;;;;;;4.50;1.90;;;31.70;52.30;;;;;;5080732;28;20322;-81
2022/08/23 14:05:26;;;;;;;2.33;2.10;;;30.30;52.40;;;;;;5083069;28;20205;-82
2022/08/23 14:08:10;;;;;;;2.20;2.10;;;30.30;53.10;;;;;;5085072;28;20229;-83
2022/08/23 14:10:54;;;;;;;2.53;2.33;;;31.00;52.30;;;;;;5088207;28;20196;-84
2022/08/23 14:13:39;;;;;;;4.07;2.33;;;30.60;53.10;;;;;;5103866;28;20290;-82
2022/08/23 14:16:29;;;;;;;3.35;3.05;;;32.50;53.40;;;;;;5106427;28;20207;-83
2022/08/23 14:19:34;;;;;;;3.05;1.70;;;32.20;51.70;;;;;;5104939;28;20208;-81
2022/08/23 14:22:19;;;;;;;2.67;1.95;;;33.30;50.10;;;;;;5043819;28;20226;-78
2022/08/23 14:25:05;;;;;;;2.28;2.08;;;33.80;49.80;;;;;;5031226;28;20199;-81
2022/08/23 14:27:49;;;;;;;2.55;2.35;;;34.70;50.40;;;;;;5030996;28;20203;-79
2022/08/23 14:30:35;;;;;;;2.17;2.03;;;34.90;48.30;;;;;;5021113;28;20202;-78
2022/08/23 14:33:20;;;;;;;2.40;2.20;;;35.00;48.20;;;;;;5033558;28;20237;-79
2022/08/23 14:36:06;;;;;;;2.85;2.50;;;34.90;48.70;;;;;;5010794;28;20202;-80
2022/08/23 14:38:50;;;;;;;2.97;2.00;;;33.10;49.80;;;;;;5015294;28;20323;-81
2022/08/23 14:41:34;;;;;;;3.05;2.30;;;32.80;48.70;;;;;;5034427;28;20191;-80
2022/08/23 14:44:19;;;;;;;2.17;1.98;;;33.20;50.50;;;;;;5037604;28;20218;-81
2022/08/23 14:47:04;;;;;;;5.10;2.05;;;34.40;50.00;;;;;;5064519;28;20288;-81
2022/08/23 14:49:50;;;;;;;1.70;1.60;;;33.40;48.60;;;;;;5062522;28;20217;-81
2022/08/23 14:52:37;;;;;;;4.78;2.00;;;33.90;49.80;;;;;;5074725;28;20189;-81
2022/08/23 14:55:23;;;;;;;3.35;2.15;;;32.90;48.90;;;;;;5049756;28;20207;-79
2022/08/23 14:58:07;;;;;;;2.60;1.70;;;32.20;50.30;;;;;;5030170;28;20215;-81